sensor_id;sensor_type;location;lat;lon;timestamp;pressure;altitude;pressure_sealevel;temperature;humidity
21361;BME280;10839;43.206;23.550;2023-08-24T00:02:06;97172.94;;;27.11;57.00
21361;BME280;10839;43.206;23.550;2023-08-24T00:04:32;97171.44;;;27.00;57.01
21361;BME280;10839;43.206;23.550;2023-08-24T00:06:59;97180.69;;;27.09;56.92
21361;BME280;10839;43.206;23.550;2023-08-24T00:09:26;97174.28;;;26.95;57.59
21361;BME280;10839;43.206;23.550;2023-08-24T00:11:53;97176.97;;;27.00;57.45
21361;BME280;10839;43.206;23.550;2023-08-24T00:14:19;97175.19;;;27.09;56.94
21361;BME280;10839;43.206;23.550;2023-08-24T00:16:45;97169.56;;;26.96;57.26
21361;BME280;10839;43.206;23.550;2023-08-24T00:19:11;97161.06;;;26.92;57.58
21361;BME280;10839;43.206;23.550;2023-08-24T00:21:36;97171.00;;;26.93;57.46
21361;BME280;10839;43.206;23.550;2023-08-24T00:24:02;97165.03;;;26.86;57.95
21361;BME280;10839;43.206;23.550;2023-08-24T00:26:29;97170.56;;;26.86;57.74
21361;BME280;10839;43.206;23.550;2023-08-24T00:28:54;97168.00;;;26.71;58.44
21361;BME280;10839;43.206;23.550;2023-08-24T00:31:20;97168.00;;;26.71;58.39
21361;BME280;10839;43.206;23.550;2023-08-24T00:33:48;97176.06;;;26.86;57.99
21361;BME280;10839;43.206;23.550;2023-08-24T00:36:16;97179.06;;;26.71;58.26
21361;BME280;10839;43.206;23.550;2023-08-24T00:38:43;97175.16;;;26.72;58.57
21361;BME280;10839;43.206;23.550;2023-08-24T00:41:09;97167.50;;;26.64;58.93
21361;BME280;10839;43.206;23.550;2023-08-24T00:43:35;97180.91;;;26.76;58.63
21361;BME280;10839;43.206;23.550;2023-08-24T00:46:02;97177.38;;;26.70;58.82
21361;BME280;10839;43.206;23.550;2023-08-24T00:48:30;97181.47;;;26.96;57.99
21361;BME280;10839;43.206;23.550;2023-08-24T00:50:59;97172.47;;;26.67;58.53
21361;BME280;10839;43.206;23.550;2023-08-24T00:53:27;97179.06;;;26.71;58.44
21361;BME280;10839;43.206;23.550;2023-08-24T00:55:53;97178.44;;;26.74;58.55
21361;BME280;10839;43.206;23.550;2023-08-24T00:58:20;97184.56;;;26.71;58.95
21361;BME280;10839;43.206;23.550;2023-08-24T01:00:47;97177.06;;;26.53;59.19
21361;BME280;10839;43.206;23.550;2023-08-24T01:03:13;97184.56;;;26.71;58.82
21361;BME280;10839;43.206;23.550;2023-08-24T01:05:43;97177.06;;;26.53;59.53
21361;BME280;10839;43.206;23.550;2023-08-24T01:08:09;97176.00;;;26.49;59.99
21361;BME280;10839;43.206;23.550;2023-08-24T01:10:59;97173.59;;;26.42;60.22
21361;BME280;10839;43.206;23.550;2023-08-24T01:16:19;97173.16;;;26.54;59.76
21361;BME280;10839;43.206;23.550;2023-08-24T01:18:47;97154.03;;;26.39;60.26
21361;BME280;10839;43.206;23.550;2023-08-24T01:21:14;97152.41;;;26.38;60.06
21361;BME280;10839;43.206;23.550;2023-08-24T01:23:53;97157.31;;;26.41;60.50
21361;BME280;10839;43.206;23.550;2023-08-24T01:26:44;97142.75;;;26.35;60.52
21361;BME280;10839;43.206;23.550;2023-08-24T01:29:11;97143.72;;;26.26;60.88
21361;BME280;10839;43.206;23.550;2023-08-24T01:31:37;97143.00;;;26.39;60.22
21361;BME280;10839;43.206;23.550;2023-08-24T01:34:03;97152.94;;;26.40;60.36
21361;BME280;10839;43.206;23.550;2023-08-24T01:36:29;97150.94;;;26.22;61.21
21361;BME280;10839;43.206;23.550;2023-08-24T01:39:11;97149.84;;;26.23;61.56
21361;BME280;10839;43.206;23.550;2023-08-24T01:41:37;97156.72;;;26.44;60.54
21361;BME280;10839;43.206;23.550;2023-08-24T01:44:06;97156.72;;;26.44;60.45
21361;BME280;10839;43.206;23.550;2023-08-24T01:46:33;97160.63;;;26.43;60.71
21361;BME280;10839;43.206;23.550;2023-08-24T01:49:00;97162.47;;;26.48;60.66
21361;BME280;10839;43.206;23.550;2023-08-24T01:51:26;97167.03;;;26.57;60.16
21361;BME280;10839;43.206;23.550;2023-08-24T01:53:53;97162.78;;;26.46;60.85
21361;BME280;10839;43.206;23.550;2023-08-24T01:56:19;97151.94;;;26.31;61.06
21361;BME280;10839;43.206;23.550;2023-08-24T01:58:45;97154.16;;;26.29;61.38
21361;BME280;10839;43.206;23.550;2023-08-24T02:01:11;97166.81;;;26.35;61.10
21361;BME280;10839;43.206;23.550;2023-08-24T02:03:38;97166.94;;;26.43;61.20
21361;BME280;10839;43.206;23.550;2023-08-24T02:06:07;97170.47;;;26.25;61.42
21361;BME280;10839;43.206;23.550;2023-08-24T02:08:34;97166.97;;;26.20;61.83
21361;BME280;10839;43.206;23.550;2023-08-24T02:11:02;97164.72;;;26.22;62.07
21361;BME280;10839;43.206;23.550;2023-08-24T02:13:28;97166.50;;;26.13;62.74
21361;BME280;10839;43.206;23.550;2023-08-24T02:16:07;97183.66;;;26.10;62.67
21361;BME280;10839;43.206;23.550;2023-08-24T02:18:35;97182.56;;;26.06;62.87
21361;BME280;10839;43.206;23.550;2023-08-24T02:21:07;97180.53;;;26.16;62.60
21361;BME280;10839;43.206;23.550;2023-08-24T02:23:33;97174.78;;;26.13;62.55
21361;BME280;10839;43.206;23.550;2023-08-24T02:25:59;97181.94;;;26.14;62.68
21361;BME280;10839;43.206;23.550;2023-08-24T02:28:25;97180.44;;;25.98;62.93
21361;BME280;10839;43.206;23.550;2023-08-24T02:30:51;97177.06;;;26.06;62.91
21361;BME280;10839;43.206;23.550;2023-08-24T02:33:17;97179.28;;;26.04;62.75
21361;BME280;10839;43.206;23.550;2023-08-24T02:35:42;97173.19;;;26.07;63.11
21361;BME280;10839;43.206;23.550;2023-08-24T02:38:11;97175.25;;;25.91;63.57
21361;BME280;10839;43.206;23.550;2023-08-24T02:40:38;97178.13;;;26.10;63.22
21361;BME280;10839;43.206;23.550;2023-08-24T02:43:04;97175.06;;;25.83;64.28
21361;BME280;10839;43.206;23.550;2023-08-24T02:45:29;97182.84;;;25.76;64.84
21361;BME280;10839;43.206;23.550;2023-08-24T02:47:55;97181.22;;;25.75;64.80
21361;BME280;10839;43.206;23.550;2023-08-24T02:50:21;97181.72;;;25.82;64.57
21361;BME280;10839;43.206;23.550;2023-08-24T02:52:47;97168.91;;;25.91;63.99
21361;BME280;10839;43.206;23.550;2023-08-24T02:55:13;97162.34;;;25.87;63.97
21361;BME280;10839;43.206;23.550;2023-08-24T02:57:39;97167.63;;;25.83;64.38
21361;BME280;10839;43.206;23.550;2023-08-24T03:00:06;97161.09;;;25.74;64.40
21361;BME280;10839;43.206;23.550;2023-08-24T03:02:32;97161.38;;;25.73;64.70
21361;BME280;10839;43.206;23.550;2023-08-24T03:04:59;97159.06;;;25.85;64.59
21361;BME280;10839;43.206;23.550;2023-08-24T03:07:24;97151.78;;;25.94;63.80
21361;BME280;10839;43.206;23.550;2023-08-24T03:09:50;97165.38;;;26.14;63.37
21361;BME280;10839;43.206;23.550;2023-08-24T03:12:16;97158.91;;;26.00;63.61
21361;BME280;10839;43.206;23.550;2023-08-24T03:14:42;97162.81;;;25.94;63.91
21361;BME280;10839;43.206;23.550;2023-08-24T03:17:08;97172.13;;;26.03;63.70
21361;BME280;10839;43.206;23.550;2023-08-24T03:19:34;97178.22;;;26.00;63.76
21361;BME280;10839;43.206;23.550;2023-08-24T03:22:00;97176.00;;;26.02;63.88
21361;BME280;10839;43.206;23.550;2023-08-24T03:24:26;97174.59;;;26.04;63.69
21361;BME280;10839;43.206;23.550;2023-08-24T03:26:53;97166.69;;;25.93;64.14
21361;BME280;10839;43.206;23.550;2023-08-24T03:29:20;97166.03;;;26.06;63.82
21361;BME280;10839;43.206;23.550;2023-08-24T03:31:46;97172.25;;;26.16;63.45
21361;BME280;10839;43.206;23.550;2023-08-24T03:34:11;97161.66;;;26.00;64.16
21361;BME280;10839;43.206;23.550;2023-08-24T03:36:38;97158.38;;;25.98;63.82
21361;BME280;10839;43.206;23.550;2023-08-24T03:39:04;97161.19;;;25.93;64.22
21361;BME280;10839;43.206;23.550;2023-08-24T03:41:29;97166.69;;;25.93;64.15
21361;BME280;10839;43.206;23.550;2023-08-24T03:43:57;97168.91;;;25.91;64.17
21361;BME280;10839;43.206;23.550;2023-08-24T03:46:23;97157.88;;;25.91;64.44
21361;BME280;10839;43.206;23.550;2023-08-24T03:48:49;97170.63;;;25.87;64.76
21361;BME280;10839;43.206;23.550;2023-08-24T03:51:15;97172.84;;;26.13;63.82
21361;BME280;10839;43.206;23.550;2023-08-24T03:53:41;97171.63;;;25.96;64.59
21361;BME280;10839;43.206;23.550;2023-08-24T03:56:06;97174.00;;;26.07;63.66
21361;BME280;10839;43.206;23.550;2023-08-24T03:58:32;97173.31;;;26.20;63.41
21361;BME280;10839;43.206;23.550;2023-08-24T04:00:59;97174.59;;;26.28;63.29
21361;BME280;10839;43.206;23.550;2023-08-24T04:03:25;97174.59;;;26.28;62.95
21361;BME280;10839;43.206;23.550;2023-08-24T04:05:51;97177.31;;;26.75;61.40
21361;BME280;10839;43.206;23.550;2023-08-24T04:08:17;97186.69;;;27.16;60.10
21361;BME280;10839;43.206;23.550;2023-08-24T04:10:43;97187.19;;;27.18;59.62
21361;BME280;10839;43.206;23.550;2023-08-24T04:13:09;97189.03;;;27.60;58.69
21361;BME280;10839;43.206;23.550;2023-08-24T04:15:36;97202.56;;;27.94;57.11
21361;BME280;10839;43.206;23.550;2023-08-24T04:18:02;97189.00;;;28.65;55.46
21361;BME280;10839;43.206;23.550;2023-08-24T04:20:28;97192.97;;;28.45;55.64
21361;BME280;10839;43.206;23.550;2023-08-24T04:22:55;97188.13;;;28.92;54.18
21361;BME280;10839;43.206;23.550;2023-08-24T04:25:21;97195.22;;;29.11;53.51
21361;BME280;10839;43.206;23.550;2023-08-24T04:27:47;97208.53;;;29.80;51.91
21361;BME280;10839;43.206;23.550;2023-08-24T04:30:13;97207.03;;;30.27;50.41
21361;BME280;10839;43.206;23.550;2023-08-24T04:32:39;97197.44;;;29.80;51.25
21361;BME280;10839;43.206;23.550;2023-08-24T04:35:05;97199.91;;;30.43;49.82
21361;BME280;10839;43.206;23.550;2023-08-24T04:37:31;97202.13;;;30.72;49.18
21361;BME280;10839;43.206;23.550;2023-08-24T04:39:57;97206.44;;;30.86;48.53
21361;BME280;10839;43.206;23.550;2023-08-24T04:42:23;97204.25;;;31.65;46.82
21361;BME280;10839;43.206;23.550;2023-08-24T04:44:50;97216.41;;;32.50;45.15
21361;BME280;10839;43.206;23.550;2023-08-24T04:47:16;97218.84;;;33.18;42.98
21361;BME280;10839;43.206;23.550;2023-08-24T04:49:42;97213.19;;;33.55;42.59
21361;BME280;10839;43.206;23.550;2023-08-24T04:52:08;97216.63;;;33.73;41.59
21361;BME280;10839;43.206;23.550;2023-08-24T04:54:33;97209.84;;;33.62;42.09
21361;BME280;10839;43.206;23.550;2023-08-24T04:56:59;97219.56;;;33.56;42.11
21361;BME280;10839;43.206;23.550;2023-08-24T04:59:25;97208.19;;;33.61;42.02
21361;BME280;10839;43.206;23.550;2023-08-24T05:01:51;97224.59;;;33.83;41.68
21361;BME280;10839;43.206;23.550;2023-08-24T05:04:17;97219.88;;;34.97;39.78
21361;BME280;10839;43.206;23.550;2023-08-24T05:06:42;97218.25;;;35.20;39.28
21361;BME280;10839;43.206;23.550;2023-08-24T05:09:08;97218.59;;;35.70;38.31
21361;BME280;10839;43.206;23.550;2023-08-24T05:11:34;97218.34;;;35.87;37.72
21361;BME280;10839;43.206;23.550;2023-08-24T05:14:00;97221.28;;;36.34;37.02
21361;BME280;10839;43.206;23.550;2023-08-24T05:16:25;97232.00;;;35.77;37.96
21361;BME280;10839;43.206;23.550;2023-08-24T05:18:53;97222.84;;;36.47;37.01
21361;BME280;10839;43.206;23.550;2023-08-24T05:21:19;97231.97;;;36.44;36.81
21361;BME280;10839;43.206;23.550;2023-08-24T05:23:45;97236.28;;;37.51;35.53
21361;BME280;10839;43.206;23.550;2023-08-24T05:26:11;97234.75;;;37.88;34.47
21361;BME280;10839;43.206;23.550;2023-08-24T05:28:36;97234.31;;;38.24;34.05
21361;BME280;10839;43.206;23.550;2023-08-24T05:31:02;97239.47;;;36.40;36.49
21361;BME280;10839;43.206;23.550;2023-08-24T05:33:28;97241.72;;;37.25;35.62
21361;BME280;10839;43.206;23.550;2023-08-24T05:35:56;97241.75;;;37.97;34.65
21361;BME280;10839;43.206;23.550;2023-08-24T05:38:23;97246.91;;;38.53;33.82
21361;BME280;10839;43.206;23.550;2023-08-24T05:40:49;97246.34;;;39.34;32.53
21361;BME280;10839;43.206;23.550;2023-08-24T05:43:15;97247.03;;;40.06;31.66
21361;BME280;10839;43.206;23.550;2023-08-24T05:45:41;97253.84;;;40.05;31.69
21361;BME280;10839;43.206;23.550;2023-08-24T05:48:10;97247.75;;;41.56;29.69
21361;BME280;10839;43.206;23.550;2023-08-24T05:50:37;97251.25;;;40.92;30.47
21361;BME280;10839;43.206;23.550;2023-08-24T05:53:07;97256.00;;;41.28;29.92
21361;BME280;10839;43.206;23.550;2023-08-24T05:55:33;97260.69;;;41.57;29.58
21361;BME280;10839;43.206;23.550;2023-08-24T05:57:59;97261.81;;;41.02;29.98
21361;BME280;10839;43.206;23.550;2023-08-24T06:00:24;97266.53;;;41.85;29.38
21361;BME280;10839;43.206;23.550;2023-08-24T06:02:50;97270.88;;;42.51;28.44
21361;BME280;10839;43.206;23.550;2023-08-24T06:05:16;97260.31;;;42.38;28.69
21361;BME280;10839;43.206;23.550;2023-08-24T06:07:44;97262.69;;;42.29;28.96
21361;BME280;10839;43.206;23.550;2023-08-24T06:10:11;97250.16;;;42.30;28.58
21361;BME280;10839;43.206;23.550;2023-08-24T06:12:38;97256.44;;;43.09;28.00
21361;BME280;10839;43.206;23.550;2023-08-24T06:15:05;97252.81;;;43.19;27.37
21361;BME280;10839;43.206;23.550;2023-08-24T06:17:33;97245.91;;;42.88;28.14
21361;BME280;10839;43.206;23.550;2023-08-24T06:20:04;97249.16;;;43.08;27.81
21361;BME280;10839;43.206;23.550;2023-08-24T06:22:30;97252.41;;;43.10;27.43
21361;BME280;10839;43.206;23.550;2023-08-24T06:24:55;97240.25;;;43.48;26.61
21361;BME280;10839;43.206;23.550;2023-08-24T06:27:25;97238.50;;;44.10;26.23
21361;BME280;10839;43.206;23.550;2023-08-24T06:29:51;97246.72;;;43.42;26.64
21361;BME280;10839;43.206;23.550;2023-08-24T06:32:17;97249.06;;;42.66;27.44
21361;BME280;10839;43.206;23.550;2023-08-24T06:34:43;97246.75;;;43.14;26.96
21361;BME280;10839;43.206;23.550;2023-08-24T06:37:08;97238.66;;;43.16;26.87
21361;BME280;10839;43.206;23.550;2023-08-24T06:39:34;97250.38;;;43.60;26.18
21361;BME280;10839;43.206;23.550;2023-08-24T06:42:00;97242.66;;;43.11;26.80
21361;BME280;10839;43.206;23.550;2023-08-24T06:44:30;97239.44;;;43.44;26.39
21361;BME280;10839;43.206;23.550;2023-08-24T06:46:56;97240.25;;;43.41;26.62
21361;BME280;10839;43.206;23.550;2023-08-24T06:49:21;97245.34;;;44.24;26.22
21361;BME280;10839;43.206;23.550;2023-08-24T06:51:47;97240.84;;;44.37;25.80
21361;BME280;10839;43.206;23.550;2023-08-24T06:54:13;97242.19;;;44.00;26.03
21361;BME280;10839;43.206;23.550;2023-08-24T06:56:40;97243.38;;;44.10;26.15
21361;BME280;10839;43.206;23.550;2023-08-24T06:59:06;97233.69;;;44.00;26.09
21361;BME280;10839;43.206;23.550;2023-08-24T07:01:32;97232.88;;;44.00;26.11
21361;BME280;10839;43.206;23.550;2023-08-24T07:03:58;97233.28;;;43.98;26.24
21361;BME280;10839;43.206;23.550;2023-08-24T07:06:24;97231.16;;;44.16;26.09
21361;BME280;10839;43.206;23.550;2023-08-24T07:08:50;97236.78;;;44.31;25.77
21361;BME280;10839;43.206;23.550;2023-08-24T07:11:16;97248.13;;;44.38;26.45
21361;BME280;10839;43.206;23.550;2023-08-24T07:13:42;97235.06;;;44.51;25.92
21361;BME280;10839;43.206;23.550;2023-08-24T07:16:08;97234.72;;;44.42;25.59
21361;BME280;10839;43.206;23.550;2023-08-24T07:18:34;97235.25;;;44.12;26.31
21361;BME280;10839;43.206;23.550;2023-08-24T07:21:00;97225.47;;;44.24;26.35
21361;BME280;10839;43.206;23.550;2023-08-24T07:23:26;97231.84;;;44.52;26.15
21361;BME280;10839;43.206;23.550;2023-08-24T07:25:51;97227.19;;;43.89;26.43
21361;BME280;10839;43.206;23.550;2023-08-24T07:28:17;97220.94;;;44.40;26.03
21361;BME280;10839;43.206;23.550;2023-08-24T07:30:43;97222.34;;;43.86;26.56
21361;BME280;10839;43.206;23.550;2023-08-24T07:33:09;97231.72;;;43.48;27.29
21361;BME280;10839;43.206;23.550;2023-08-24T07:35:35;97232.50;;;43.80;27.01
21361;BME280;10839;43.206;23.550;2023-08-24T07:38:01;97226.88;;;43.59;27.36
21361;BME280;10839;43.206;23.550;2023-08-24T07:40:28;97230.94;;;43.58;27.54
21361;BME280;10839;43.206;23.550;2023-08-24T07:42:54;97232.94;;;43.58;27.02
21361;BME280;10839;43.206;23.550;2023-08-24T07:45:23;97230.53;;;43.63;27.29
21361;BME280;10839;43.206;23.550;2023-08-24T07:47:49;97229.22;;;43.99;26.91
21361;BME280;10839;43.206;23.550;2023-08-24T07:50:15;97235.81;;;43.47;27.35
21361;BME280;10839;43.206;23.550;2023-08-24T07:52:40;97225.28;;;43.37;27.79
21361;BME280;10839;43.206;23.550;2023-08-24T07:55:07;97223.19;;;43.76;27.39
21361;BME280;10839;43.206;23.550;2023-08-24T07:57:34;97224.75;;;44.05;27.29
21361;BME280;10839;43.206;23.550;2023-08-24T08:00:00;97220.72;;;43.89;27.29
21361;BME280;10839;43.206;23.550;2023-08-24T08:02:26;97215.84;;;43.89;27.16
21361;BME280;10839;43.206;23.550;2023-08-24T08:04:56;97212.66;;;43.73;27.27
21361;BME280;10839;43.206;23.550;2023-08-24T08:07:24;97221.50;;;44.03;27.18
21361;BME280;10839;43.206;23.550;2023-08-24T08:09:50;97226.94;;;44.53;26.41
21361;BME280;10839;43.206;23.550;2023-08-24T08:12:16;97230.50;;;44.71;26.08
21361;BME280;10839;43.206;23.550;2023-08-24T08:14:42;97222.97;;;44.40;26.92
21361;BME280;10839;43.206;23.550;2023-08-24T08:17:08;97222.06;;;44.57;26.50
21361;BME280;10839;43.206;23.550;2023-08-24T08:19:33;97219.53;;;44.73;26.75
21361;BME280;10839;43.206;23.550;2023-08-24T08:22:01;97222.56;;;44.38;26.41
21361;BME280;10839;43.206;23.550;2023-08-24T08:24:27;97224.25;;;44.97;26.29
21361;BME280;10839;43.206;23.550;2023-08-24T08:26:53;97228.34;;;44.89;26.54
21361;BME280;10839;43.206;23.550;2023-08-24T08:29:19;97219.09;;;43.98;27.23
21361;BME280;10839;43.206;23.550;2023-08-24T08:31:45;97222.22;;;44.22;26.93
21361;BME280;10839;43.206;23.550;2023-08-24T08:34:11;97217.28;;;44.40;26.41
21361;BME280;10839;43.206;23.550;2023-08-24T08:36:37;97217.84;;;44.82;26.11
21361;BME280;10839;43.206;23.550;2023-08-24T08:39:03;97220.16;;;44.98;25.33
21361;BME280;10839;43.206;23.550;2023-08-24T08:41:38;97216.06;;;44.99;25.00
21361;BME280;10839;43.206;23.550;2023-08-24T08:44:09;97198.28;;;44.22;25.67
21361;BME280;10839;43.206;23.550;2023-08-24T08:46:41;97207.16;;;44.39;25.91
21361;BME280;10839;43.206;23.550;2023-08-24T08:49:07;97200.84;;;43.92;26.63
21361;BME280;10839;43.206;23.550;2023-08-24T08:51:38;97208.31;;;44.48;26.04
21361;BME280;10839;43.206;23.550;2023-08-24T08:54:05;97205.13;;;44.36;26.02
21361;BME280;10839;43.206;23.550;2023-08-24T08:56:32;97206.97;;;43.84;26.58
21361;BME280;10839;43.206;23.550;2023-08-24T08:58:59;97203.75;;;43.64;26.29
21361;BME280;10839;43.206;23.550;2023-08-24T09:01:27;97198.81;;;44.00;25.83
21361;BME280;10839;43.206;23.550;2023-08-24T09:03:53;97203.81;;;43.57;26.13
21361;BME280;10839;43.206;23.550;2023-08-24T09:06:20;97197.72;;;43.10;26.70
21361;BME280;10839;43.206;23.550;2023-08-24T09:08:48;97196.50;;;43.42;26.62
21361;BME280;10839;43.206;23.550;2023-08-24T09:11:14;97201.34;;;43.52;26.65
21361;BME280;10839;43.206;23.550;2023-08-24T09:13:40;97188.84;;;43.18;26.81
21361;BME280;10839;43.206;23.550;2023-08-24T09:16:07;97187.59;;;42.94;26.78
21361;BME280;10839;43.206;23.550;2023-08-24T09:18:39;97197.34;;;43.18;26.61
21361;BME280;10839;43.206;23.550;2023-08-24T09:21:10;97186.31;;;43.76;26.11
21361;BME280;10839;43.206;23.550;2023-08-24T09:23:38;97181.09;;;42.73;26.81
21361;BME280;10839;43.206;23.550;2023-08-24T09:26:08;97182.34;;;43.00;27.06
21361;BME280;10839;43.206;23.550;2023-08-24T09:28:34;97184.38;;;43.10;26.90
21361;BME280;10839;43.206;23.550;2023-08-24T09:31:02;97172.22;;;42.64;27.09
21361;BME280;10839;43.206;23.550;2023-08-24T09:33:29;97180.97;;;42.17;27.38
21361;BME280;10839;43.206;23.550;2023-08-24T09:35:55;97176.25;;;42.52;26.97
21361;BME280;10839;43.206;23.550;2023-08-24T09:38:27;97181.94;;;43.05;26.81
21361;BME280;10839;43.206;23.550;2023-08-24T09:40:55;97171.31;;;42.28;26.85
21361;BME280;10839;43.206;23.550;2023-08-24T09:43:22;97171.28;;;42.11;27.07
21361;BME280;10839;43.206;23.550;2023-08-24T09:45:53;97167.28;;;42.26;27.35
21361;BME280;10839;43.206;23.550;2023-08-24T09:48:20;97155.78;;;41.83;27.67
21361;BME280;10839;43.206;23.550;2023-08-24T09:50:48;97166.03;;;42.27;27.23
21361;BME280;10839;43.206;23.550;2023-08-24T09:53:22;97160.78;;;42.22;26.65
21361;BME280;10839;43.206;23.550;2023-08-24T09:55:54;97147.69;;;41.78;27.20
21361;BME280;10839;43.206;23.550;2023-08-24T09:58:24;97151.88;;;42.09;26.89
21361;BME280;10839;43.206;23.550;2023-08-24T10:00:51;97150.81;;;41.59;27.11
21361;BME280;10839;43.206;23.550;2023-08-24T10:03:24;97148.09;;;41.80;27.22
21361;BME280;10839;43.206;23.550;2023-08-24T10:05:56;97153.16;;;42.47;26.32
21361;BME280;10839;43.206;23.550;2023-08-24T10:08:35;97145.34;;;41.95;26.70
21361;BME280;10839;43.206;23.550;2023-08-24T10:11:03;97140.78;;;41.11;27.93
21361;BME280;10839;43.206;23.550;2023-08-24T10:16:33;97137.84;;;40.90;28.16
21361;BME280;10839;43.206;23.550;2023-08-24T10:19:02;97145.91;;;40.44;28.62
21361;BME280;10839;43.206;23.550;2023-08-24T10:21:29;97141.75;;;40.35;28.77
21361;BME280;10839;43.206;23.550;2023-08-24T10:23:58;97127.16;;;41.17;27.81
21361;BME280;10839;43.206;23.550;2023-08-24T10:26:26;97132.28;;;41.65;27.31
21361;BME280;10839;43.206;23.550;2023-08-24T10:28:52;97133.03;;;41.55;27.33
21361;BME280;10839;43.206;23.550;2023-08-24T10:31:19;97129.09;;;41.77;27.73
21361;BME280;10839;43.206;23.550;2023-08-24T10:33:47;97123.00;;;41.72;27.38
21361;BME280;10839;43.206;23.550;2023-08-24T10:36:13;97112.75;;;41.39;28.02
21361;BME280;10839;43.206;23.550;2023-08-24T10:38:41;97120.22;;;41.86;27.63
21361;BME280;10839;43.206;23.550;2023-08-24T10:41:10;97115.13;;;41.34;28.56
21361;BME280;10839;43.206;23.550;2023-08-24T10:43:40;97111.97;;;41.49;28.22
21361;BME280;10839;43.206;23.550;2023-08-24T10:46:14;97110.09;;;41.06;28.55
21361;BME280;10839;43.206;23.550;2023-08-24T10:53:58;97103.03;;;40.32;29.20
21361;BME280;10839;43.206;23.550;2023-08-24T10:56:53;97103.09;;;39.66;30.05
21361;BME280;10839;43.206;23.550;2023-08-24T10:59:24;97100.03;;;40.54;30.00
21361;BME280;10839;43.206;23.550;2023-08-24T11:04:16;97094.66;;;40.93;29.30
21361;BME280;10839;43.206;23.550;2023-08-24T11:06:55;97104.56;;;41.20;28.92
21361;BME280;10839;43.206;23.550;2023-08-24T11:09:23;97103.31;;;40.63;29.18
21361;BME280;10839;43.206;23.550;2023-08-24T11:11:56;97106.34;;;40.41;29.28
21361;BME280;10839;43.206;23.550;2023-08-24T11:14:23;97097.69;;;39.87;29.98
21361;BME280;10839;43.206;23.550;2023-08-24T11:16:53;97100.19;;;39.29;30.52
21361;BME280;10839;43.206;23.550;2023-08-24T11:19:20;97087.50;;;38.90;31.17
21361;BME280;10839;43.206;23.550;2023-08-24T11:21:46;97090.63;;;38.81;31.53
21361;BME280;10839;43.206;23.550;2023-08-24T11:24:13;97079.75;;;38.57;31.59
21361;BME280;10839;43.206;23.550;2023-08-24T11:26:47;97077.78;;;38.35;32.49
21361;BME280;10839;43.206;23.550;2023-08-24T11:29:14;97072.19;;;39.13;31.36
21361;BME280;10839;43.206;23.550;2023-08-24T11:31:47;97069.41;;;38.61;32.26
21361;BME280;10839;43.206;23.550;2023-08-24T11:34:15;97068.75;;;37.81;33.15
21361;BME280;10839;43.206;23.550;2023-08-24T11:36:48;97071.13;;;37.79;33.65
21361;BME280;10839;43.206;23.550;2023-08-24T11:39:19;97070.50;;;37.89;33.38
21361;BME280;10839;43.206;23.550;2023-08-24T11:42:03;97068.81;;;37.84;32.97
21361;BME280;10839;43.206;23.550;2023-08-24T11:44:44;97070.41;;;37.44;33.60
21361;BME280;10839;43.206;23.550;2023-08-24T11:47:12;97064.78;;;37.44;33.87
21361;BME280;10839;43.206;23.550;2023-08-24T11:49:38;97065.63;;;37.86;33.19
21361;BME280;10839;43.206;23.550;2023-08-24T11:52:04;97064.53;;;38.13;33.41
21361;BME280;10839;43.206;23.550;2023-08-24T11:54:33;97067.66;;;38.08;33.94
21361;BME280;10839;43.206;23.550;2023-08-24T11:56:58;97062.75;;;38.50;33.26
21361;BME280;10839;43.206;23.550;2023-08-24T11:59:25;97048.16;;;38.93;32.74
21361;BME280;10839;43.206;23.550;2023-08-24T12:01:51;97053.19;;;39.07;32.71
21361;BME280;10839;43.206;23.550;2023-08-24T12:04:20;97057.72;;;39.11;31.74
21361;BME280;10839;43.206;23.550;2023-08-24T12:06:46;97048.66;;;39.28;31.44
21361;BME280;10839;43.206;23.550;2023-08-24T12:09:12;97038.53;;;38.94;32.18
21361;BME280;10839;43.206;23.550;2023-08-24T12:11:38;97051.41;;;38.95;32.61
21361;BME280;10839;43.206;23.550;2023-08-24T12:14:05;97046.25;;;38.49;32.79
21361;BME280;10839;43.206;23.550;2023-08-24T12:16:33;97042.91;;;38.17;31.86
21361;BME280;10839;43.206;23.550;2023-08-24T12:19:00;97041.53;;;37.85;32.29
21361;BME280;10839;43.206;23.550;2023-08-24T12:21:29;97039.53;;;38.08;32.73
21361;BME280;10839;43.206;23.550;2023-08-24T12:24:00;97022.63;;;38.53;32.26
21361;BME280;10839;43.206;23.550;2023-08-24T12:26:27;97025.72;;;38.45;32.08
21361;BME280;10839;43.206;23.550;2023-08-24T12:28:59;97032.78;;;38.35;32.16
21361;BME280;10839;43.206;23.550;2023-08-24T12:31:29;97031.16;;;38.34;32.96
21361;BME280;10839;43.206;23.550;2023-08-24T12:34:05;97028.66;;;38.29;32.78
21361;BME280;10839;43.206;23.550;2023-08-24T12:36:36;97031.66;;;38.17;32.35
21361;BME280;10839;43.206;23.550;2023-08-24T12:39:04;97025.59;;;37.51;32.82
21361;BME280;10839;43.206;23.550;2023-08-24T12:41:31;97032.81;;;37.13;33.33
21361;BME280;10839;43.206;23.550;2023-08-24T12:43:57;97038.34;;;37.45;33.01
21361;BME280;10839;43.206;23.550;2023-08-24T12:46:23;97033.56;;;37.10;34.16
21361;BME280;10839;43.206;23.550;2023-08-24T12:48:49;97031.91;;;36.71;34.24
21361;BME280;10839;43.206;23.550;2023-08-24T12:51:16;97029.69;;;36.15;34.81
21361;BME280;10839;43.206;23.550;2023-08-24T12:53:42;97023.78;;;35.73;33.43
21361;BME280;10839;43.206;23.550;2023-08-24T12:56:08;97007.41;;;35.59;33.39
21361;BME280;10839;43.206;23.550;2023-08-24T12:58:34;97016.91;;;35.55;33.85
21361;BME280;10839;43.206;23.550;2023-08-24T13:01:00;97024.66;;;35.18;34.85
21361;BME280;10839;43.206;23.550;2023-08-24T13:03:26;97019.97;;;34.70;35.96
21361;BME280;10839;43.206;23.550;2023-08-24T13:05:52;97016.44;;;34.85;36.39